createdAt,value
2023-03-28T00:00:17.932Z,33.20
2023-03-28T00:03:07.052Z,33.30
2023-03-28T00:05:37.427Z,33.40
2023-03-28T00:08:08.095Z,33.30
2023-03-28T00:10:37.147Z,33.40
2023-03-28T00:13:06.052Z,33.60
2023-03-28T00:15:35.483Z,33.60
2023-03-28T00:18:05.670Z,33.50
2023-03-28T00:20:39.157Z,33.70
2023-03-28T00:23:10.085Z,33.70
2023-03-28T00:25:41.802Z,33.90
2023-03-28T00:28:11.370Z,33.80
2023-03-28T00:30:40.495Z,33.60
2023-03-28T00:33:09.229Z,33.80
2023-03-28T00:35:38.405Z,33.90
2023-03-28T00:38:08.554Z,33.80
2023-03-28T00:40:38.894Z,33.90
2023-03-28T00:43:07.904Z,33.90
2023-03-28T00:45:36.993Z,34.00
2023-03-28T00:52:43.929Z,34.10
2023-03-28T00:55:22.045Z,34.00
2023-03-28T00:57:53.135Z,33.90
2023-03-28T01:00:23.011Z,34.10
2023-03-28T01:02:58.462Z,34.30
2023-03-28T01:05:31.145Z,34.00
2023-03-28T01:08:08.705Z,33.90
2023-03-28T01:10:39.009Z,34.00
2023-03-28T01:13:11.629Z,34.10
2023-03-28T01:15:41.228Z,34.30
2023-03-28T01:18:13.474Z,34.60
2023-03-28T01:21:37.718Z,34.50
2023-03-28T01:24:51.505Z,34.10
2023-03-28T01:27:33.741Z,34.40
2023-03-28T01:30:57.480Z,34.80
2023-03-28T01:34:24.909Z,34.50
2023-03-28T01:37:15.743Z,34.80
2023-03-28T01:40:15.274Z,34.60
2023-03-28T01:43:04.059Z,34.70
2023-03-28T01:45:49.223Z,34.60
2023-03-28T01:48:31.495Z,35.00
2023-03-28T01:51:14.633Z,35.20
2023-03-28T01:53:52.361Z,35.10
2023-03-28T01:56:31.125Z,34.90
2023-03-28T01:59:17.749Z,34.80
2023-03-28T02:02:28.569Z,35.00
2023-03-28T02:05:07.463Z,35.10
2023-03-28T02:07:45.385Z,35.00
2023-03-28T02:10:22.744Z,35.10
2023-03-28T02:13:05.344Z,35.10
2023-03-28T02:15:55.496Z,35.20
2023-03-28T02:18:35.022Z,35.30
2023-03-28T02:26:33.570Z,35.40
2023-03-28T02:29:21.061Z,35.50
2023-03-28T02:31:59.707Z,35.60
2023-03-28T02:34:28.755Z,35.50
2023-03-28T02:37:07.560Z,35.50
2023-03-28T02:39:53.269Z,35.40
2023-03-28T02:43:19.353Z,35.60
2023-03-28T02:46:13.693Z,35.50
2023-03-28T02:49:21.777Z,35.60
2023-03-28T02:52:04.609Z,35.50
2023-03-28T02:54:44.189Z,35.60
2023-03-28T02:57:44.230Z,35.40
2023-03-28T03:00:20.571Z,35.40
2023-03-28T03:02:52.493Z,35.20
2023-03-28T03:05:22.868Z,35.40
2023-03-28T03:07:52.317Z,35.40
2023-03-28T03:15:01.085Z,35.40
2023-03-28T03:17:49.844Z,35.10
2023-03-28T03:20:27.186Z,35.10
2023-03-28T03:22:56.728Z,35.20
2023-03-28T03:25:26.596Z,35.50
2023-03-28T03:28:16.351Z,35.30
2023-03-28T03:30:46.024Z,35.40
2023-03-28T03:33:34.486Z,35.40
2023-03-28T03:36:09.769Z,35.20
2023-03-28T03:38:38.644Z,35.20
2023-03-28T03:41:09.231Z,34.90
2023-03-28T03:43:38.444Z,35.10
2023-03-28T03:46:08.571Z,34.80
2023-03-28T03:53:19.275Z,35.30
2023-03-28T03:56:02.128Z,35.30
2023-03-28T04:03:26.941Z,35.80
2023-03-28T04:05:58.151Z,35.40
2023-03-28T04:08:28.976Z,35.30
2023-03-28T04:10:57.905Z,35.10
2023-03-28T04:13:27.504Z,35.00
2023-03-28T04:16:01.324Z,35.10
2023-03-28T04:18:50.936Z,34.90
2023-03-28T04:21:28.482Z,34.90
2023-03-28T04:24:01.952Z,35.10
2023-03-28T04:26:42.564Z,35.20
2023-03-28T04:29:14.480Z,35.00
2023-03-28T04:31:50.736Z,35.00
2023-03-28T04:34:29.788Z,35.00
2023-03-28T04:37:09.859Z,35.20
2023-03-28T04:39:49.627Z,35.30
2023-03-28T04:42:39.445Z,35.10
2023-03-28T04:45:31.391Z,35.10
2023-03-28T04:48:07.961Z,35.20
2023-03-28T04:50:37.018Z,35.30
2023-03-28T04:53:06.332Z,35.40
2023-03-28T04:55:37.866Z,35.80
2023-03-28T04:58:20.627Z,35.80
2023-03-28T05:00:50.600Z,35.80
2023-03-28T05:03:40.051Z,35.80
2023-03-28T05:06:09.614Z,35.60
2023-03-28T05:08:38.931Z,35.50
2023-03-28T05:11:09.481Z,35.40
2023-03-28T05:13:38.968Z,35.50
2023-03-28T05:16:20.584Z,35.30
2023-03-28T05:19:12.457Z,35.50
2023-03-28T05:22:01.857Z,35.60
2023-03-28T05:24:31.694Z,35.90
2023-03-28T05:27:02.169Z,35.70
2023-03-28T05:29:31.041Z,35.70
2023-03-28T05:32:00.179Z,35.50
2023-03-28T05:34:34.249Z,35.40
2023-03-28T05:37:04.885Z,35.50
2023-03-28T05:39:44.525Z,35.80
2023-03-28T05:42:16.241Z,35.70
2023-03-28T05:44:45.530Z,35.60
2023-03-28T05:47:55.726Z,35.60
2023-03-28T05:50:27.511Z,35.40
2023-03-28T05:53:07.541Z,35.40
2023-03-28T05:55:36.350Z,35.70
2023-03-28T05:58:25.558Z,35.80
2023-03-28T06:00:54.762Z,36.10
2023-03-28T06:03:28.114Z,36.50
2023-03-28T06:05:57.323Z,36.70
2023-03-28T06:08:29.441Z,37.10
2023-03-28T06:11:02.967Z,37.30
2023-03-28T06:13:40.817Z,37.30
2023-03-28T06:16:11.496Z,37.50
2023-03-28T06:18:40.713Z,37.60
2023-03-28T06:21:09.738Z,37.70
2023-03-28T06:23:39.550Z,37.80
2023-03-28T06:26:09.853Z,37.80
2023-03-28T06:28:44.530Z,38.00
2023-03-28T06:31:22.688Z,38.10
2023-03-28T06:33:52.176Z,38.00
2023-03-28T06:36:23.121Z,38.10
2023-03-28T06:38:53.655Z,38.20
2023-03-28T06:41:24.945Z,38.20
2023-03-28T06:43:55.463Z,38.30
2023-03-28T06:46:59.851Z,38.30
2023-03-28T06:49:29.253Z,38.40
2023-03-28T06:52:31.357Z,38.30
2023-03-28T06:55:02.398Z,38.40
2023-03-28T06:57:31.252Z,38.30
2023-03-28T07:04:50.358Z,38.40
2023-03-28T07:07:19.779Z,38.30
2023-03-28T07:09:51.950Z,38.40
2023-03-28T07:12:21.337Z,38.40
2023-03-28T07:14:50.744Z,38.10
2023-03-28T07:17:20.789Z,38.10
2023-03-28T07:19:53.652Z,37.90
2023-03-28T07:22:24.222Z,38.00
2023-03-28T07:24:53.364Z,38.00
2023-03-28T07:27:24.961Z,37.80
2023-03-28T07:34:28.839Z,37.80
2023-03-28T07:36:59.154Z,37.70
2023-03-28T07:39:47.889Z,37.80
2023-03-28T07:42:19.791Z,38.00
2023-03-28T07:44:48.834Z,38.00
2023-03-28T07:47:18.290Z,37.70
2023-03-28T07:49:47.805Z,37.90
2023-03-28T07:52:18.300Z,37.40
2023-03-28T07:54:47.576Z,37.30
2023-03-28T07:57:16.569Z,37.10
2023-03-28T07:59:57.633Z,36.70
2023-03-28T08:02:27.230Z,37.10
2023-03-28T08:04:56.455Z,36.70
2023-03-28T08:07:29.132Z,36.50
2023-03-28T08:09:59.024Z,36.00
2023-03-28T08:12:32.104Z,36.10
2023-03-28T08:15:01.445Z,37.00
2023-03-28T08:17:31.575Z,36.00
2023-03-28T08:20:00.922Z,36.10
2023-03-28T08:22:31.608Z,36.40
2023-03-28T08:25:20.539Z,36.10
2023-03-28T08:27:50.118Z,35.80
2023-03-28T08:30:19.278Z,35.30
2023-03-28T08:32:57.673Z,34.90
2023-03-28T08:35:27.195Z,35.10
2023-03-28T08:38:01.465Z,34.90
2023-03-28T08:40:31.842Z,34.60
2023-03-28T08:43:40.365Z,34.30
2023-03-28T08:46:17.084Z,34.30
2023-03-28T08:48:48.518Z,33.60
2023-03-28T08:51:27.127Z,33.50
2023-03-28T08:54:12.728Z,33.80
2023-03-28T08:56:48.267Z,34.10
2023-03-28T09:03:50.092Z,34.70
2023-03-28T09:06:30.922Z,34.50
2023-03-28T09:09:23.690Z,34.40
2023-03-28T09:12:27.705Z,34.40
2023-03-28T09:15:35.683Z,34.70
2023-03-28T09:18:38.815Z,33.50
2023-03-28T09:21:20.142Z,36.20
2023-03-28T09:24:24.246Z,38.00
2023-03-28T09:27:13.787Z,38.50
2023-03-28T09:29:46.347Z,39.30
2023-03-28T09:32:27.574Z,39.20
2023-03-28T09:34:57.278Z,39.40
2023-03-28T09:37:33.492Z,39.40
2023-03-28T09:40:17.916Z,39.80
2023-03-28T09:43:19.032Z,39.50
2023-03-28T09:46:08.653Z,40.10
2023-03-28T09:48:58.545Z,40.00
2023-03-28T09:51:33.245Z,40.10
2023-03-28T09:54:07.768Z,40.00
2023-03-28T09:56:42.111Z,39.90
2023-03-28T09:59:36.529Z,40.10
2023-03-28T10:02:29.834Z,39.80
2023-03-28T10:05:05.566Z,39.10
2023-03-28T10:07:59.640Z,39.00
2023-03-28T10:10:36.279Z,39.00
2023-03-28T10:13:11.804Z,39.00
2023-03-28T10:15:48.123Z,39.30
2023-03-28T10:18:35.931Z,38.60
2023-03-28T10:21:33.566Z,38.40
2023-03-28T10:24:17.627Z,37.90
2023-03-28T10:26:59.920Z,37.70
2023-03-28T10:34:29.029Z,37.20
2023-03-28T10:37:27.489Z,37.40
2023-03-28T10:40:29.975Z,36.70
2023-03-28T10:43:37.927Z,36.40
2023-03-28T10:46:23.536Z,36.00
2023-03-28T10:49:14.157Z,36.00
2023-03-28T10:51:46.893Z,35.50
2023-03-28T10:54:34.763Z,35.50
2023-03-28T10:57:16.959Z,34.50
2023-03-28T10:59:53.843Z,34.10
2023-03-28T11:02:47.879Z,34.10
2023-03-28T11:05:38.592Z,34.10
2023-03-28T11:08:40.659Z,33.50
2023-03-28T11:11:37.765Z,33.90
2023-03-28T11:14:23.436Z,34.10
2023-03-28T11:17:03.915Z,33.00
2023-03-28T11:20:30.362Z,32.50
2023-03-28T11:23:38.079Z,33.10
2023-03-28T11:26:55.692Z,31.10
2023-03-28T11:29:44.001Z,30.50
2023-03-28T11:32:25.495Z,31.20
2023-03-28T11:35:08.197Z,31.00
2023-03-28T11:37:46.186Z,31.00
2023-03-28T11:40:29.267Z,30.90
2023-03-28T11:43:07.509Z,31.20
2023-03-28T11:45:52.121Z,31.60
2023-03-28T11:48:32.011Z,30.90
2023-03-28T11:51:12.838Z,31.50
2023-03-28T11:54:02.598Z,29.70
2023-03-28T11:56:53.698Z,29.20
2023-03-28T11:59:48.034Z,29.80
2023-03-28T12:02:41.028Z,29.60
2023-03-28T12:05:24.509Z,30.80
2023-03-28T12:08:05.559Z,29.40
2023-03-28T12:10:38.381Z,29.10
2023-03-28T12:13:27.084Z,29.50
2023-03-28T12:16:08.718Z,29.70
2023-03-28T12:18:45.055Z,29.50
2023-03-28T12:21:34.406Z,29.00
2023-03-28T12:24:14.759Z,28.90
2023-03-28T12:27:07.774Z,28.30
2023-03-28T12:29:47.126Z,28.50
2023-03-28T12:32:38.970Z,28.30
2023-03-28T12:35:22.473Z,27.80
2023-03-28T12:38:12.257Z,28.10
2023-03-28T12:40:56.120Z,28.50
2023-03-28T12:43:42.634Z,28.40
2023-03-28T12:46:19.548Z,28.80
2023-03-28T12:48:57.818Z,28.40
2023-03-28T12:51:38.867Z,27.10
2023-03-28T12:54:24.178Z,27.00
2023-03-28T12:57:06.226Z,26.80
2023-03-28T13:00:13.583Z,26.40
2023-03-28T13:03:28.008Z,27.20
2023-03-28T13:06:10.543Z,27.20
2023-03-28T13:09:05.750Z,27.50
2023-03-28T13:11:50.194Z,26.90
2023-03-28T13:14:38.608Z,26.90
2023-03-28T13:17:22.685Z,27.10
2023-03-28T13:19:55.851Z,27.60
2023-03-28T13:22:32.941Z,27.40
2023-03-28T13:25:32.626Z,27.40
2023-03-28T13:28:23.260Z,27.90
2023-03-28T13:31:09.005Z,28.20
2023-03-28T13:33:42.229Z,28.10
2023-03-28T13:36:30.779Z,27.90
2023-03-28T13:39:22.655Z,28.00
2023-03-28T13:42:01.385Z,28.30
2023-03-28T13:44:41.535Z,28.30
2023-03-28T13:47:22.932Z,28.50
2023-03-28T13:49:59.738Z,29.10
2023-03-28T13:52:29.861Z,29.50
2023-03-28T13:55:04.142Z,28.80
2023-03-28T13:57:33.074Z,28.80
2023-03-28T14:00:07.978Z,28.80
2023-03-28T14:02:47.064Z,28.20
2023-03-28T14:05:23.844Z,28.00
2023-03-28T14:07:56.818Z,28.30
2023-03-28T14:10:32.613Z,28.10
2023-03-28T14:13:06.407Z,28.40
2023-03-28T14:15:39.853Z,28.40
2023-03-28T14:18:17.262Z,28.60
2023-03-28T14:20:47.616Z,28.20
2023-03-28T14:23:31.249Z,28.20
2023-03-28T14:26:02.714Z,28.40
2023-03-28T14:28:32.782Z,28.60
2023-03-28T14:31:02.601Z,28.60
2023-03-28T14:33:37.695Z,28.40
2023-03-28T14:36:10.922Z,28.60
2023-03-28T14:38:41.188Z,28.90
2023-03-28T14:41:19.306Z,29.10
2023-03-28T14:43:53.506Z,29.40
2023-03-28T14:46:26.174Z,29.70
2023-03-28T14:48:59.013Z,29.50
2023-03-28T14:51:29.146Z,29.00
2023-03-28T14:53:59.232Z,29.40
2023-03-28T14:56:29.852Z,29.70
2023-03-28T14:59:05.577Z,29.60
2023-03-28T15:01:35.538Z,29.50
2023-03-28T15:08:38.305Z,29.90
2023-03-28T15:11:15.580Z,28.80
2023-03-28T15:18:25.278Z,29.00
2023-03-28T15:20:58.221Z,28.90
2023-03-28T15:23:31.782Z,28.70
2023-03-28T15:26:06.367Z,28.60
2023-03-28T15:28:37.613Z,28.70
2023-03-28T15:31:08.380Z,28.90
2023-03-28T15:33:37.631Z,29.10
2023-03-28T15:36:13.399Z,29.00
2023-03-28T15:43:41.429Z,29.20
2023-03-28T15:46:14.482Z,29.40
2023-03-28T15:48:44.118Z,29.60
2023-03-28T15:51:18.423Z,30.00
2023-03-28T15:53:50.191Z,30.20
2023-03-28T15:56:26.905Z,30.20
2023-03-28T15:59:03.979Z,30.50
2023-03-28T16:01:34.660Z,30.40
2023-03-28T16:04:23.833Z,30.60
2023-03-28T16:06:58.571Z,32.70
2023-03-28T16:09:27.626Z,33.20
2023-03-28T16:12:01.209Z,34.20
2023-03-28T16:14:52.163Z,35.40
2023-03-28T16:17:32.980Z,36.90
2023-03-28T16:20:17.276Z,37.10
2023-03-28T16:22:47.319Z,36.90
2023-03-28T16:25:16.964Z,37.00
2023-03-28T16:27:45.885Z,36.80
2023-03-28T16:30:26.541Z,36.90
2023-03-28T16:32:55.952Z,36.70
2023-03-28T16:35:27.153Z,36.60
2023-03-28T16:37:56.801Z,36.70
2023-03-28T16:40:26.076Z,36.60
2023-03-28T16:42:55.162Z,36.50
2023-03-28T16:45:25.616Z,36.40
2023-03-28T16:47:54.910Z,36.80
2023-03-28T16:50:23.998Z,36.20
2023-03-28T16:57:25.716Z,36.00
2023-03-28T16:59:54.528Z,35.30
2023-03-28T17:02:25.133Z,35.10
2023-03-28T17:04:54.029Z,35.00
2023-03-28T17:07:23.414Z,34.80
2023-03-28T17:09:52.431Z,33.80
2023-03-28T17:12:23.934Z,33.30
2023-03-28T17:14:52.722Z,33.50
2023-03-28T17:17:21.772Z,33.40
2023-03-28T17:19:51.873Z,33.20
2023-03-28T17:22:21.050Z,33.10
2023-03-28T17:24:50.910Z,32.90
2023-03-28T17:27:21.250Z,32.90
2023-03-28T17:29:50.061Z,32.90
2023-03-28T17:32:19.137Z,32.90
2023-03-28T17:34:49.078Z,32.90
2023-03-28T17:37:20.439Z,33.20
2023-03-28T17:39:49.534Z,33.70
2023-03-28T17:42:18.409Z,34.10
2023-03-28T17:44:48.567Z,34.30
2023-03-28T17:47:17.435Z,34.40
2023-03-28T17:49:46.582Z,34.60
2023-03-28T17:52:15.467Z,34.70
2023-03-28T17:54:46.009Z,34.70
2023-03-28T17:57:14.943Z,34.60
2023-03-28T17:59:44.630Z,34.70
2023-03-28T18:02:13.643Z,34.60
2023-03-28T18:04:44.871Z,34.70
2023-03-28T18:07:25.141Z,34.50
2023-03-28T18:09:55.924Z,34.30
2023-03-28T18:12:24.777Z,34.30
2023-03-28T18:14:53.803Z,34.00
2023-03-28T18:17:22.983Z,34.00
2023-03-28T18:19:52.164Z,34.00
2023-03-28T18:22:21.047Z,34.00
2023-03-28T18:24:50.058Z,34.20
2023-03-28T18:27:20.158Z,34.00
2023-03-28T18:29:49.375Z,34.10
2023-03-28T18:32:18.135Z,34.10
2023-03-28T18:34:48.132Z,34.10
2023-03-28T18:37:17.216Z,33.90
2023-03-28T18:39:46.333Z,34.00
2023-03-28T18:42:15.095Z,33.90
2023-03-28T18:44:45.674Z,33.90
2023-03-28T18:47:14.582Z,33.80
2023-03-28T18:49:43.625Z,33.60
2023-03-28T18:52:12.404Z,33.50
2023-03-28T18:54:45.839Z,33.60
2023-03-28T18:57:15.041Z,33.50
2023-03-28T18:59:45.609Z,33.60
2023-03-28T19:02:15.350Z,33.60
2023-03-28T19:04:44.518Z,33.60
2023-03-28T19:07:14.542Z,33.40
2023-03-28T19:09:44.053Z,33.50
2023-03-28T19:12:13.564Z,33.30
2023-03-28T19:14:42.616Z,33.30
2023-03-28T19:17:12.805Z,33.30
2023-03-28T19:19:41.656Z,33.20
2023-03-28T19:22:11.287Z,32.80
2023-03-28T19:24:40.161Z,33.10
2023-03-28T19:27:09.217Z,32.90
2023-03-28T19:29:37.916Z,33.00
2023-03-28T19:32:07.332Z,32.90
2023-03-28T19:34:37.404Z,32.90
2023-03-28T19:37:06.932Z,32.90
2023-03-28T19:39:35.685Z,33.10
2023-03-28T19:42:04.959Z,33.20
2023-03-28T19:49:07.017Z,32.80
2023-03-28T19:51:37.190Z,32.90
2023-03-28T19:54:06.572Z,32.70
2023-03-28T19:56:35.736Z,32.60
2023-03-28T19:59:04.757Z,32.70
2023-03-28T20:01:33.505Z,32.50
2023-03-28T20:04:02.524Z,32.50
2023-03-28T20:06:31.330Z,32.40
2023-03-28T20:13:32.922Z,32.60
2023-03-28T20:16:03.935Z,32.50
2023-03-28T20:18:33.910Z,32.50
2023-03-28T20:21:05.649Z,32.50
2023-03-28T20:23:35.635Z,32.20
2023-03-28T20:26:18.780Z,32.30
2023-03-28T20:28:56.384Z,31.90
2023-03-28T20:31:25.251Z,32.00
2023-03-28T20:33:55.416Z,32.00
2023-03-28T20:36:24.822Z,31.60
2023-03-28T20:38:55.015Z,31.60
2023-03-28T20:41:24.186Z,31.50
2023-03-28T20:43:55.330Z,31.60
2023-03-28T20:46:25.149Z,31.40
2023-03-28T20:48:56.954Z,31.50
2023-03-28T20:51:29.240Z,31.40
2023-03-28T20:54:01.003Z,31.50
2023-03-28T20:56:32.678Z,31.50
2023-03-28T20:59:04.448Z,31.40
2023-03-28T21:01:33.650Z,31.40
2023-03-28T21:04:02.836Z,31.50
2023-03-28T21:06:35.297Z,31.50
2023-03-28T21:09:07.708Z,31.60
2023-03-28T21:11:39.864Z,31.80
2023-03-28T21:14:14.239Z,31.70
2023-03-28T21:16:43.504Z,31.60
2023-03-28T21:19:12.753Z,31.50
2023-03-28T21:21:41.627Z,31.60
2023-03-28T21:24:10.659Z,31.20
2023-03-28T21:26:39.424Z,31.00
2023-03-28T21:29:10.800Z,30.70
2023-03-28T21:31:39.672Z,30.60
2023-03-28T21:34:09.031Z,30.50
2023-03-28T21:36:37.810Z,30.20
2023-03-28T21:39:07.923Z,30.00
2023-03-28T21:41:38.118Z,30.00
2023-03-28T21:44:07.431Z,29.80
2023-03-28T21:46:37.506Z,30.00
2023-03-28T21:49:07.100Z,30.00
2023-03-28T21:51:36.037Z,29.90
2023-03-28T21:54:06.543Z,29.90
2023-03-28T21:56:35.414Z,29.90
2023-03-28T21:59:04.506Z,30.00
2023-03-28T22:01:33.257Z,30.00
2023-03-28T22:08:36.069Z,30.00
2023-03-28T22:11:14.469Z,30.20
2023-03-28T22:13:45.391Z,30.00
2023-03-28T22:16:15.530Z,30.20
2023-03-28T22:18:49.796Z,30.10
2023-03-28T22:21:19.022Z,30.20
2023-03-28T22:23:49.351Z,30.40
2023-03-28T22:26:18.416Z,30.50
2023-03-28T22:28:49.129Z,30.40
2023-03-28T22:31:17.930Z,30.50
2023-03-28T22:33:47.168Z,30.40
2023-03-28T22:36:15.960Z,30.50
2023-03-28T22:38:45.390Z,30.60
2023-03-28T22:41:15.809Z,30.60
2023-03-28T22:43:45.105Z,30.80
2023-03-28T22:46:16.469Z,30.80
2023-03-28T22:48:45.701Z,30.60
2023-03-28T22:51:15.887Z,30.70
2023-03-28T22:53:45.388Z,30.70
2023-03-28T22:56:16.123Z,30.70
2023-03-28T22:58:45.155Z,30.80
2023-03-28T23:01:14.274Z,30.80
2023-03-28T23:03:43.342Z,30.70
2023-03-28T23:06:13.280Z,30.80
2023-03-28T23:08:42.504Z,30.80
2023-03-28T23:11:11.250Z,30.80
2023-03-28T23:13:41.793Z,30.80
2023-03-28T23:16:11.060Z,30.70
2023-03-28T23:18:40.079Z,30.80
2023-03-28T23:21:09.023Z,30.70
2023-03-28T23:23:38.986Z,30.80
2023-03-28T23:26:08.242Z,30.80
2023-03-28T23:28:37.224Z,30.80
2023-03-28T23:31:08.038Z,30.90
2023-03-28T23:33:37.138Z,30.90
2023-03-28T23:36:07.825Z,31.00
2023-03-28T23:38:36.910Z,31.00
2023-03-28T23:41:06.606Z,31.10
2023-03-28T23:43:35.714Z,31.10
2023-03-28T23:46:06.527Z,31.10
2023-03-28T23:48:36.227Z,31.20
2023-03-28T23:51:05.426Z,31.30
2023-03-28T23:53:34.582Z,31.30
2023-03-28T23:56:03.892Z,31.30
2023-03-28T23:58:32.984Z,31.40
